Time;durP1;ratioP1;P1;durP2;ratioP2;P2;SDS_P1;SDS_P2;PMS_P1;PMS_P2;Temp;Humidity;BMP_temperature;BMP_pressure;BME280_temperature;BME280_humidity;BME280_pressure;Samples;Min_cycle;Max_cycle;Signal;HPM_P1;HPM_P2
2021/10/04 00:01:45;;;;;;;;;;;15.40;99.90;;;14.43;91.28;95552.72;10523172;28;1881;-74
2021/10/04 00:07:06;;;;;;;;;;;15.40;99.90;;;14.50;90.54;95547.72;10514752;28;1912;-74
2021/10/04 00:12:28;;;;;;;;;;;15.40;99.90;;;14.48;90.64;95545.34;10527780;28;2055;-74
2021/10/04 00:17:49;;;;;;;;;;;15.40;99.90;;;14.50;90.62;95553.94;10522819;28;1926;-74
2021/10/04 00:22:52;;;;;;;;;;;15.50;99.90;;;14.55;90.52;95545.72;10527301;28;1897;-74
2021/10/04 00:27:55;;;;;;;;;;;15.50;99.90;;;14.62;89.95;95541.78;10526309;28;1937;-74
2021/10/04 00:32:58;;;;;;;;;;;15.50;99.90;;;14.72;89.63;95545.09;10524865;28;2384;-76
2021/10/04 00:38:00;;;;;;;;;;;15.60;99.90;;;14.80;88.80;95541.63;10517699;28;1936;-75
2021/10/04 00:43:03;;;;;;;;;;;15.60;99.90;;;14.79;88.47;95539.25;10526212;28;1953;-75
2021/10/04 00:48:06;;;;;;;;;;;15.70;99.90;;;14.76;88.55;95529.84;10524996;28;2403;-75
2021/10/04 00:53:09;;;;;;;;;;;15.70;99.90;;;14.73;89.11;95535.06;10528353;28;2020;-75
2021/10/04 00:58:12;;;;;;;;;;;15.60;99.90;;;14.70;89.50;95532.97;10534115;28;1952;-75
2021/10/04 01:03:16;;;;;;;;;;;15.60;99.90;;;14.72;89.05;95534.25;10530263;28;1826;-75
2021/10/04 01:08:19;;;;;;;;;;;15.60;99.90;;;14.65;89.32;95524.97;10525080;28;1895;-74
2021/10/04 01:13:42;;;;;;;;;;;15.60;99.90;;;14.60;89.79;95537.50;10531206;28;1980;-74
2021/10/04 01:19:05;;;;;;;;;;;15.50;99.90;;;14.59;89.87;95535.91;10532791;28;1964;-74
2021/10/04 01:24:28;;;;;;;;;;;15.50;99.90;;;14.47;90.50;95532.91;10527998;28;1864;-74
2021/10/04 01:29:51;;;;;;;;;;;15.50;99.90;;;14.39;90.68;95528.22;10532366;28;1912;-74
2021/10/04 01:35:13;;;;;;;;;;;15.40;99.90;;;14.37;90.77;95532.28;10525235;28;1988;-74
2021/10/04 01:40:38;;;;;;;;;;;15.40;99.90;;;14.29;91.17;95525.72;10528882;28;1901;-74
2021/10/04 01:46:01;;;;;;;;;;;15.30;99.90;;;14.23;91.60;95527.72;10534791;28;2071;-76
2021/10/04 01:51:24;;;;;;;;;;;15.30;99.90;;;14.22;91.47;95541.53;10527431;28;2009;-75
2021/10/04 01:56:46;;;;;;;;;;;15.30;99.90;;;14.16;91.09;95543.53;10526482;28;1967;-75
2021/10/04 02:01:49;;;;;;;;;;;15.20;99.90;;;14.18;88.33;95540.53;10531359;28;2008;-75
2021/10/04 02:06:52;;;;;;;;;;;15.10;99.90;;;14.10;86.29;95538.53;10526117;28;1972;-75
2021/10/04 02:11:56;;;;;;;;;;;15.10;99.90;;;14.03;83.81;95555.16;10532386;28;2083;-75
2021/10/04 02:16:58;;;;;;;;;;;15.00;99.90;;;14.03;82.53;95552.47;10524537;28;1976;-75
2021/10/04 02:22:03;;;;;;;;;;;15.00;99.90;;;14.07;79.67;95543.47;10529290;28;1924;-74
2021/10/04 02:27:06;;;;;;;;;;;15.00;99.90;;;14.03;79.31;95534.34;10530007;28;1937;-73
2021/10/04 02:32:08;;;;;;;;;;;15.00;99.90;;;13.97;79.12;95540.16;10525759;28;2071;-74
2021/10/04 02:37:11;;;;;;;;;;;14.90;99.90;;;13.84;80.30;95525.53;10521046;28;1913;-74
2021/10/04 02:42:14;;;;;;;;;;;14.90;99.90;;;13.69;80.36;95529.34;10529636;28;1884;-74
2021/10/04 02:47:17;;;;;;;;;;;14.80;99.90;;;13.63;80.66;95524.34;10522011;28;1932;-74
2021/10/04 02:52:21;;;;;;;;;;;14.70;99.90;;;13.59;80.08;95529.50;10527207;28;2170;-73
2021/10/04 02:57:24;;;;;;;;;;;14.60;99.90;;;13.60;80.17;95538.41;10525649;28;1910;-74
2021/10/04 03:02:30;;;;;;;;;;;14.60;99.90;;;13.67;79.51;95541.53;10525220;28;2115;-74
2021/10/04 03:07:33;;;;;;;;;;;14.60;99.90;;;13.64;78.85;95525.94;10519755;28;1881;-75
2021/10/04 03:12:35;;;;;;;;;;;14.60;99.90;;;13.57;79.29;95522.81;10528087;28;1896;-75
2021/10/04 03:17:38;;;;;;;;;;;14.50;99.90;;;13.63;79.15;95519.72;10527176;28;2166;-75
2021/10/04 03:22:42;;;;;;;;;;;14.50;99.90;;;13.67;78.76;95528.00;10526925;28;1873;-74
2021/10/04 03:27:45;;;;;;;;;;;14.60;99.90;;;13.64;79.25;95536.72;10528802;28;1877;-74
2021/10/04 03:32:48;;;;;;;;;;;14.60;99.90;;;13.67;79.14;95536.13;10521496;28;1917;-74
2021/10/04 03:37:51;;;;;;;;;;;14.60;99.90;;;13.62;79.39;95530.84;10519131;28;2071;-74
2021/10/04 03:42:54;;;;;;;;;;;14.50;99.90;;;13.60;79.28;95535.72;10519820;28;2092;-74
2021/10/04 03:47:57;;;;;;;;;;;14.60;99.90;;;13.56;79.73;95540.13;10521472;28;2000;-74
2021/10/04 03:53:00;;;;;;;;;;;14.50;99.90;;;13.49;80.14;95535.91;10526353;28;2058;-74
2021/10/04 03:58:03;;;;;;;;;;;14.50;99.90;;;13.48;79.93;95541.59;10527162;28;1915;-75
2021/10/04 04:03:06;;;;;;;;;;;14.40;99.90;;;13.41;80.56;95533.88;10519693;28;2045;-75
2021/10/04 04:08:09;;;;;;;;;;;14.40;99.90;;;13.39;80.47;95543.38;10521801;28;1967;-75
2021/10/04 04:13:12;;;;;;;;;;;14.40;99.90;;;13.34;81.04;95538.06;10518762;28;2000;-75
2021/10/04 04:18:15;;;;;;;;;;;14.30;99.90;;;13.28;81.08;95544.66;10522552;28;1992;-75
2021/10/04 04:23:17;;;;;;;;;;;14.30;99.90;;;13.34;81.12;95548.88;10521575;28;1957;-75
2021/10/04 04:28:21;;;;;;;;;;;14.20;99.90;;;13.35;80.78;95553.97;10525368;28;1877;-75
2021/10/04 04:33:44;;;;;;;;;;;14.30;99.90;;;13.33;81.94;95561.56;10516598;28;2050;-74
2021/10/04 04:39:07;;;;;;;;;;;14.30;99.90;;;13.32;81.08;95553.78;10515856;28;2031;-74
2021/10/04 04:44:30;;;;;;;;;;;14.30;99.90;;;13.38;81.26;95564.19;10529518;28;1901;-75
2021/10/04 04:49:37;;;;;;;;;;;14.30;99.90;;;13.25;81.38;95567.66;10518996;28;1860;-74
2021/10/04 04:55:00;;;;;;;;;;;14.30;99.90;;;13.22;82.41;95576.31;10522136;28;1917;-75
2021/10/04 05:00:23;;;;;;;;;;;14.20;99.90;;;13.20;83.14;95570.41;10518897;28;2051;-76
2021/10/04 05:05:46;;;;;;;;;;;14.10;99.90;;;13.03;84.63;95564.72;10520351;28;2015;-74
2021/10/04 05:11:09;;;;;;;;;;;14.10;99.90;;;12.93;86.22;95571.09;10527073;28;1932;-75
2021/10/04 05:16:31;;;;;;;;;;;13.90;99.90;;;12.82;86.88;95565.03;10520095;28;1981;-74
2021/10/04 05:21:54;;;;;;;;;;;13.90;99.90;;;12.78;88.01;95577.50;10519131;28;1955;-74
2021/10/04 05:27:17;;;;;;;;;;;13.80;99.90;;;12.75;88.72;95574.59;10524811;28;1945;-74
2021/10/04 05:32:40;;;;;;;;;;;13.80;99.90;;;12.70;89.11;95578.97;10522748;28;2348;-76
2021/10/04 05:38:03;;;;;;;;;;;13.70;99.90;;;12.68;89.49;95570.38;10528224;28;1964;-75
2021/10/04 05:43:26;;;;;;;;;;;13.70;99.90;;;12.76;89.40;95592.38;10530090;28;1896;-76
2021/10/04 05:48:47;;;;;;;;;;;13.70;99.90;;;12.76;89.43;95603.97;10526515;28;2012;-76
2021/10/04 05:54:09;;;;;;;;;;;13.70;99.90;;;12.95;88.69;95604.78;10527196;28;1961;-76
2021/10/04 05:59:31;;;;;;;;;;;13.80;99.90;;;13.11;88.15;95609.97;10530852;28;1869;-76
2021/10/04 06:04:52;;;;;;;;;;;13.90;99.90;;;13.25;86.90;95608.94;10525372;28;1923;-77
2021/10/04 06:10:16;;;;;;;;;;;14.00;99.90;;;13.33;86.93;95591.25;10531946;28;1958;-75
2021/10/04 06:15:37;;;;;;;;;;;14.20;99.90;;;13.52;86.54;95604.72;10531690;28;1935;-79
2021/10/04 06:20:58;;;;;;;;;;;14.30;99.90;;;13.74;84.98;95617.56;10552749;28;1936;-80
2021/10/04 06:26:20;;;;;;;;;;;14.50;99.90;;;13.75;84.67;95622.69;10548324;28;2115;-77
2021/10/04 06:31:46;;;;;;;;;;;14.60;99.90;;;13.71;84.85;95618.97;10549776;28;1935;-78
2021/10/04 06:36:49;;;;;;;;;;;14.70;99.90;;;13.81;84.56;95636.13;10541978;28;1965;-80
2021/10/04 06:41:52;;;;;;;;;;;14.70;99.90;;;13.71;84.98;95639.78;10557196;28;1982;-82
2021/10/04 06:46:55;;;;;;;;;;;14.60;99.90;;;13.93;84.33;95649.91;10555132;28;1888;-79
2021/10/04 06:51:58;;;;;;;;;;;14.70;99.90;;;14.03;84.39;95653.25;10521246;28;2386;-75
2021/10/04 06:57:01;;;;;;;;;;;14.90;99.90;;;14.12;84.48;95649.84;10515347;28;1968;-76
2021/10/04 07:02:04;;;;;;;;;;;14.90;99.90;;;14.04;85.01;95657.56;10516035;28;1913;-77
2021/10/04 07:07:08;;;;;;;;;;;15.00;99.90;;;14.74;82.00;95650.28;10521167;28;1933;-76
2021/10/04 07:12:10;;;;;;;;;;;15.30;99.90;;;14.63;81.73;95648.88;10532214;28;2156;-79
2021/10/04 07:17:13;;;;;;;;;;;15.50;99.90;;;14.90;80.90;95665.13;10544261;28;1950;-80
2021/10/04 07:22:16;;;;;;;;;;;15.60;99.90;;;15.29;79.07;95663.72;10553563;28;1851;-80
2021/10/04 07:27:19;;;;;;;;;;;15.80;99.90;;;15.06;79.39;95669.06;10539804;28;2184;-76
2021/10/04 07:32:22;;;;;;;;;;;15.80;99.90;;;15.39;78.26;95666.16;10546686;28;2001;-77
2021/10/04 07:37:26;;;;;;;;;;;16.00;99.90;;;15.05;79.53;95681.00;10538687;28;1905;-77
2021/10/04 07:42:29;;;;;;;;;;;16.00;99.90;;;15.36;78.29;95680.34;10538681;28;2129;-75
2021/10/04 07:47:32;;;;;;;;;;;16.00;99.90;;;15.24;78.46;95685.50;10529145;28;2023;-76
2021/10/04 07:52:35;;;;;;;;;;;16.20;99.90;;;15.52;77.20;95697.81;10543451;28;1950;-77
2021/10/04 07:57:38;;;;;;;;;;;16.10;99.90;;;15.12;78.89;95699.53;10537902;28;2237;-77
2021/10/04 08:02:41;;;;;;;;;;;16.10;99.90;;;15.34;78.62;95712.34;10545452;28;1860;-76
2021/10/04 08:07:44;;;;;;;;;;;16.10;99.90;;;15.38;77.69;95718.75;10538761;28;2199;-78
2021/10/04 08:12:47;;;;;;;;;;;16.10;99.90;;;15.21;78.87;95729.44;10541797;28;1834;-77
2021/10/04 08:17:50;;;;;;;;;;;16.10;99.90;;;15.11;79.82;95725.81;10552970;28;2231;-77
2021/10/04 08:22:53;;;;;;;;;;;16.00;99.90;;;14.99;80.03;95733.66;10562267;28;1919;-77
2021/10/04 08:27:56;;;;;;;;;;;16.00;99.90;;;14.52;82.51;95746.50;10534273;28;1857;-77
2021/10/04 08:32:59;;;;;;;;;;;15.60;99.90;;;14.17;84.96;95739.78;10533269;28;1864;-77
2021/10/04 08:38:02;;;;;;;;;;;15.40;99.90;;;14.20;86.25;95733.00;10542029;28;1894;-80
2021/10/04 08:43:05;;;;;;;;;;;15.10;99.90;;;14.13;86.71;95744.19;10544641;28;1896;-80
2021/10/04 08:48:07;;;;;;;;;;;15.10;99.90;;;14.22;85.65;95741.59;10544639;28;1737;-79
2021/10/04 08:53:10;;;;;;;;;;;15.10;99.90;;;14.21;85.85;95761.63;10534738;28;1867;-80
2021/10/04 08:58:13;;;;;;;;;;;15.10;99.90;;;13.86;86.89;95763.78;10522691;28;1939;-79
2021/10/04 09:03:17;;;;;;;;;;;14.90;99.90;;;13.91;86.18;95771.81;10529403;28;1826;-76
2021/10/04 09:08:19;;;;;;;;;;;14.90;99.90;;;13.73;87.08;95761.84;10525881;28;1999;-77
2021/10/04 09:13:22;;;;;;;;;;;14.70;99.90;;;13.96;86.12;95765.53;10532884;28;1859;-76
2021/10/04 09:18:26;;;;;;;;;;;14.70;99.90;;;13.89;85.35;95773.22;10535272;28;1919;-76
2021/10/04 09:23:29;;;;;;;;;;;14.80;99.90;;;13.66;86.12;95786.53;10529618;28;1904;-76
2021/10/04 09:28:32;;;;;;;;;;;14.60;99.90;;;13.68;87.09;95787.06;10536935;28;1908;-76
2021/10/04 09:33:35;;;;;;;;;;;14.50;99.90;;;13.95;85.71;95794.47;10535218;28;1937;-78
2021/10/04 09:38:38;;;;;;;;;;;14.70;99.90;;;14.12;84.41;95798.53;10534709;28;1985;-76
2021/10/04 09:43:41;;;;;;;;;;;14.80;99.90;;;13.94;84.68;95813.69;10536075;28;1864;-76
2021/10/04 09:48:43;;;;;;;;;;;14.90;99.90;;;13.75;85.38;95819.09;10528303;28;1938;-76
2021/10/04 09:53:46;;;;;;;;;;;14.70;99.90;;;13.78;85.57;95824.72;10534186;28;1969;-76
2021/10/04 09:58:49;;;;;;;;;;;14.60;99.90;;;13.95;84.35;95823.41;10534196;28;1979;-77
2021/10/04 10:03:52;;;;;;;;;;;14.70;99.90;;;13.97;83.99;95823.91;10533882;28;1945;-77
2021/10/04 10:08:55;;;;;;;;;;;14.80;99.90;;;13.78;84.93;95826.59;10525995;28;1865;-77
2021/10/04 10:13:58;;;;;;;;;;;14.70;99.90;;;14.00;84.27;95820.63;10534021;28;1809;-78
2021/10/04 10:19:00;;;;;;;;;;;14.70;99.90;;;14.06;83.33;95824.84;10546509;28;2001;-79
2021/10/04 10:24:04;;;;;;;;;;;14.90;99.90;;;13.85;83.76;95828.94;10542176;28;1897;-79
2021/10/04 10:29:07;;;;;;;;;;;14.80;99.90;;;14.10;83.18;95830.47;10544738;28;1912;-78
2021/10/04 10:34:10;;;;;;;;;;;14.90;99.90;;;14.18;82.93;95832.47;10545057;28;1856;-79
2021/10/04 10:39:13;;;;;;;;;;;14.90;99.90;;;14.14;82.55;95817.97;10542359;28;1932;-78
2021/10/04 10:44:18;;;;;;;;;;;15.00;99.90;;;14.25;83.29;95832.91;10555579;28;1848;-77
2021/10/04 10:49:21;;;;;;;;;;;15.00;99.90;;;14.01;83.69;95833.03;10568672;28;2951;-78
2021/10/04 10:54:24;;;;;;;;;;;15.00;99.90;;;14.12;83.21;95847.19;10552486;28;2480;-77
2021/10/04 10:59:27;;;;;;;;;;;15.00;99.90;;;13.81;84.29;95855.75;10537208;28;2383;-78
2021/10/04 11:04:30;;;;;;;;;;;14.80;99.90;;;13.88;85.67;95848.09;10539621;28;2302;-79
2021/10/04 11:09:33;;;;;;;;;;;14.70;99.90;;;14.06;84.25;95846.47;10539892;28;1869;-78
2021/10/04 11:14:36;;;;;;;;;;;14.80;99.90;;;13.94;84.34;95863.13;10535914;28;1969;-78
2021/10/04 11:19:39;;;;;;;;;;;14.80;99.90;;;13.88;85.30;95866.19;10527731;28;1980;-78
2021/10/04 11:24:44;;;;;;;;;;;14.80;99.90;;;13.88;85.68;95855.41;10522013;28;2365;-79
2021/10/04 11:29:47;;;;;;;;;;;14.70;99.90;;;13.72;86.31;95857.50;10525711;28;1843;-79
2021/10/04 11:34:52;;;;;;;;;;;14.70;99.90;;;13.86;85.96;95852.16;10517098;28;1935;-73
2021/10/04 11:39:55;;;;;;;;;;;14.70;99.90;;;13.58;86.60;95862.00;10525670;28;1980;-73
2021/10/04 11:45:00;;;;;;;;;;;14.60;99.90;;;13.68;85.73;95859.97;10527723;28;1919;-78
2021/10/04 11:50:03;;;;;;;;;;;14.60;99.90;;;13.59;85.67;95847.41;10554501;28;1854;-79
2021/10/04 11:55:06;;;;;;;;;;;14.50;99.90;;;13.59;86.09;95858.22;10548425;28;2262;-76
2021/10/04 12:00:09;;;;;;;;;;;14.50;99.90;;;13.65;85.19;95847.03;10554601;28;1905;-77
2021/10/04 12:05:12;;;;;;;;;;;14.60;99.90;;;13.86;84.06;95854.88;10553343;28;1794;-77
2021/10/04 12:10:16;;;;;;;;;;;14.60;99.90;;;13.77;83.86;95841.22;10559819;28;1767;-76
2021/10/04 12:15:20;;;;;;;;;;;14.70;99.90;;;13.71;85.04;95824.28;10553881;28;2037;-77
2021/10/04 12:20:24;;;;;;;;;;;14.60;99.90;;;13.86;83.69;95825.13;10547996;28;1935;-76
2021/10/04 12:25:28;;;;;;;;;;;14.70;99.90;;;13.71;83.97;95836.97;10557785;28;1941;-77
2021/10/04 12:30:31;;;;;;;;;;;14.70;99.90;;;13.56;84.60;95826.41;10553366;28;1933;-78
2021/10/04 12:35:34;;;;;;;;;;;14.50;99.90;;;13.70;83.86;95819.97;10553985;28;1901;-77
2021/10/04 12:40:41;;;;;;;;;;;14.50;99.90;;;13.40;86.13;95828.47;10556035;28;1965;-79
2021/10/04 12:45:43;;;;;;;;;;;14.40;99.90;;;13.60;85.44;95838.22;10553174;28;1879;-77
2021/10/04 12:50:46;;;;;;;;;;;14.40;99.90;;;13.57;85.61;95830.69;10548867;28;2144;-77
2021/10/04 12:55:50;;;;;;;;;;;14.40;99.90;;;13.52;85.43;95840.47;10532669;28;2561;-76
2021/10/04 13:00:53;;;;;;;;;;;14.40;99.90;;;13.48;85.20;95825.94;10542881;28;1885;-76
2021/10/04 13:05:56;;;;;;;;;;;14.40;99.90;;;13.28;85.60;95826.19;10539505;28;1936;-79
2021/10/04 13:10:59;;;;;;;;;;;14.30;99.90;;;13.21;86.49;95825.75;10536326;28;1896;-76
2021/10/04 13:16:03;;;;;;;;;;;14.20;99.90;;;13.43;85.70;95812.50;10527823;28;1975;-75
2021/10/04 13:21:06;;;;;;;;;;;14.20;99.90;;;13.42;84.93;95821.72;10530713;28;1904;-75
2021/10/04 13:26:09;;;;;;;;;;;14.30;99.90;;;13.22;84.69;95827.34;10528122;28;1951;-76
2021/10/04 13:31:14;;;;;;;;;;;14.30;99.90;;;13.28;84.68;95831.59;10550727;28;2047;-77
2021/10/04 13:36:17;;;;;;;;;;;14.20;99.90;;;13.19;85.61;95828.72;10559076;28;1952;-76
2021/10/04 13:41:20;;;;;;;;;;;14.20;99.90;;;13.05;86.60;95832.41;10556202;28;2191;-77
2021/10/04 13:46:23;;;;;;;;;;;14.10;99.90;;;13.24;85.58;95819.78;10554286;28;1852;-76
2021/10/04 13:51:26;;;;;;;;;;;14.10;99.90;;;13.39;85.58;95816.88;10539397;28;1860;-76
2021/10/04 13:56:29;;;;;;;;;;;14.20;99.90;;;13.23;85.79;95815.44;10543558;28;2345;-81
2021/10/04 14:01:32;;;;;;;;;;;14.20;99.90;;;13.30;85.84;95818.63;10543586;28;1744;-81
2021/10/04 14:06:35;;;;;;;;;;;14.10;99.90;;;13.29;85.46;95824.28;10523283;28;1806;-76
2021/10/04 14:11:38;;;;;;;;;;;14.20;99.90;;;13.18;86.65;95810.91;10527517;28;1947;-76
2021/10/04 14:16:41;;;;;;;;;;;14.10;99.90;;;13.19;86.54;95807.13;10524160;28;1920;-77
2021/10/04 14:21:48;;;;;;;;;;;14.10;99.90;;;13.24;86.29;95817.09;10523716;28;1954;-76
2021/10/04 14:26:51;;;;;;;;;;;14.10;99.90;;;12.86;88.72;95813.44;10521831;28;1959;-75
2021/10/04 14:31:54;;;;;;;;;;;14.00;99.90;;;12.83;89.58;95812.13;10528146;28;1825;-75
2021/10/04 14:36:58;;;;;;;;;;;13.80;99.90;;;12.69;89.75;95819.28;10526643;28;1976;-76
2021/10/04 14:42:00;;;;;;;;;;;13.70;99.90;;;12.78;89.68;95808.66;10530298;28;1894;-76
2021/10/04 14:47:03;;;;;;;;;;;13.80;99.90;;;12.97;88.68;95823.81;10532847;28;1915;-76
2021/10/04 14:52:06;;;;;;;;;;;13.90;99.90;;;12.98;88.81;95828.16;10530085;28;1947;-75
2021/10/04 14:57:09;;;;;;;;;;;14.00;99.90;;;13.02;89.11;95822.16;10530201;28;1923;-75
2021/10/04 15:02:12;;;;;;;;;;;14.00;99.90;;;13.07;88.77;95822.13;10536288;28;1989;-78
2021/10/04 15:07:15;;;;;;;;;;;14.00;99.90;;;13.04;87.51;95815.41;10535493;28;1949;-77
2021/10/04 15:12:18;;;;;;;;;;;14.00;99.90;;;12.97;88.40;95825.72;10533324;28;2075;-76
2021/10/04 15:17:21;;;;;;;;;;;14.00;99.90;;;12.97;89.23;95813.03;10527325;28;2011;-76
2021/10/04 15:22:24;;;;;;;;;;;14.00;99.90;;;12.98;88.35;95811.97;10522439;28;2006;-75
2021/10/04 15:27:27;;;;;;;;;;;13.90;99.90;;;12.97;89.22;95799.53;10530038;28;2156;-76
2021/10/04 15:32:30;;;;;;;;;;;13.90;99.90;;;13.10;88.33;95791.84;10522706;28;1918;-76
2021/10/04 15:37:32;;;;;;;;;;;14.00;99.90;;;12.81;89.47;95790.03;10523661;28;1914;-75
2021/10/04 15:42:35;;;;;;;;;;;13.90;99.90;;;12.92;88.88;95786.13;10536599;28;1935;-76
2021/10/04 15:47:39;;;;;;;;;;;13.90;99.90;;;13.06;88.05;95794.31;10531842;28;1861;-77
2021/10/04 15:52:43;;;;;;;;;;;13.90;99.90;;;13.10;88.63;95797.22;10543514;28;1762;-76
2021/10/04 15:57:46;;;;;;;;;;;14.00;99.90;;;13.09;88.21;95801.03;10538393;28;1973;-77
2021/10/04 16:02:51;;;;;;;;;;;14.00;99.90;;;12.91;89.35;95802.59;10537361;28;1779;-75
2021/10/04 16:07:54;;;;;;;;;;;14.00;99.90;;;12.82;89.71;95791.63;10539781;28;1539;-76
2021/10/04 16:12:57;;;;;;;;;;;13.90;99.90;;;12.76;90.38;95781.97;10539210;28;1880;-76
2021/10/04 16:18:00;;;;;;;;;;;13.80;99.90;;;12.58;91.48;95769.25;10542259;28;1977;-77
2021/10/04 16:23:04;;;;;;;;;;;13.70;99.90;;;12.48;92.53;95763.97;10555827;28;2113;-77
2021/10/04 16:28:07;;;;;;;;;;;13.60;99.90;;;12.48;92.52;95759.38;10538498;28;1964;-75
2021/10/04 16:33:10;;;;;;;;;;;13.50;99.90;;;12.38;93.53;95751.38;10550888;28;1755;-75
2021/10/04 16:38:13;;;;;;;;;;;13.40;99.90;;;12.38;93.15;95749.50;10540590;28;1959;-75
2021/10/04 16:43:16;;;;;;;;;;;13.40;99.90;;;12.31;94.37;95745.53;10543360;28;1818;-78
2021/10/04 16:48:19;;;;;;;;;;;13.40;99.90;;;12.34;93.67;95740.38;10544447;28;1913;-77
2021/10/04 16:53:21;;;;;;;;;;;13.40;99.90;;;12.31;95.10;95746.31;10542295;28;1876;-79
2021/10/04 16:58:24;;;;;;;;;;;13.40;99.90;;;12.30;94.86;95742.03;10523194;28;1938;-77
2021/10/04 17:03:27;;;;;;;;;;;13.40;99.90;;;12.17;95.11;95737.31;10532415;28;1859;-76
2021/10/04 17:08:30;;;;;;;;;;;13.30;99.90;;;12.14;96.16;95733.28;10526088;28;1806;-76
2021/10/04 17:13:33;;;;;;;;;;;13.20;99.90;;;12.01;97.30;95752.00;10525145;28;1912;-75
2021/10/04 17:18:36;;;;;;;;;;;13.20;99.90;;;12.01;97.06;95750.09;10530759;28;1984;-78
2021/10/04 17:23:39;;;;;;;;;;;13.10;99.90;;;12.05;97.49;95750.34;10533277;28;1934;-76
2021/10/04 17:28:42;;;;;;;;;;;13.10;99.90;;;12.06;97.27;95743.88;10527993;28;1940;-75
2021/10/04 17:33:45;;;;;;;;;;;13.10;99.90;;;12.07;97.60;95724.72;10527309;28;1832;-76
2021/10/04 17:38:48;;;;;;;;;;;13.10;99.90;;;12.07;97.65;95723.94;10533205;28;1988;-78
2021/10/04 17:43:51;;;;;;;;;;;13.10;99.90;;;11.95;98.88;95718.91;10535167;28;1923;-76
2021/10/04 17:48:54;;;;;;;;;;;13.10;99.90;;;11.94;98.99;95722.69;10533714;28;2040;-76
2021/10/04 17:53:57;;;;;;;;;;;12.90;99.90;;;12.03;98.46;95725.59;10540440;28;1783;-77
2021/10/04 17:58:59;;;;;;;;;;;13.10;99.90;;;12.07;98.90;95707.75;10535056;28;1910;-77
2021/10/04 18:04:02;;;;;;;;;;;13.10;99.90;;;11.99;98.76;95711.06;10537894;28;1947;-77
2021/10/04 18:09:05;;;;;;;;;;;13.10;99.90;;;12.05;98.26;95712.63;10541345;28;1844;-77
2021/10/04 18:14:08;;;;;;;;;;;13.10;99.90;;;12.03;98.89;95682.50;10531078;28;1969;-76
2021/10/04 18:19:11;;;;;;;;;;;13.10;99.90;;;11.98;100.00;95690.63;10534688;28;2259;-78
2021/10/04 18:24:14;;;;;;;;;;;13.00;99.90;;;11.90;99.98;95675.88;10536566;28;1985;-75
2021/10/04 18:29:17;;;;;;;;;;;13.00;99.90;;;12.01;100.00;95663.91;10528197;28;1989;-77
2021/10/04 18:34:20;;;;;;;;;;;13.00;99.90;;;11.99;100.00;95667.97;10530333;28;2172;-78
2021/10/04 18:39:23;;;;;;;;;;;13.00;99.90;;;11.89;99.51;95656.19;10531843;28;2192;-76
2021/10/04 18:44:28;;;;;;;;;;;12.90;99.90;;;11.92;100.00;95678.28;10543178;28;1946;-77
2021/10/04 18:49:31;;;;;;;;;;;12.90;99.90;;;12.04;99.07;95679.50;10548918;28;1955;-77
2021/10/04 18:54:34;;;;;;;;;;;13.00;99.90;;;12.05;99.11;95691.88;10563109;28;1876;-77
2021/10/04 18:59:37;;;;;;;;;;;13.00;99.90;;;12.05;98.43;95674.91;10573877;28;1953;-76
2021/10/04 19:04:40;;;;;;;;;;;13.10;99.90;;;11.89;99.64;95655.41;10566532;28;1943;-77
2021/10/04 19:09:44;;;;;;;;;;;13.10;99.90;;;11.73;100.00;95638.56;10539105;28;1935;-77
2021/10/04 19:14:52;;;;;;;;;;;12.90;99.90;;;11.70;100.00;95647.19;10528108;28;1969;-77
2021/10/04 19:19:55;;;;;;;;;;;12.80;99.90;;;11.79;100.00;95658.16;10541502;28;2042;-75
2021/10/04 19:24:58;;;;;;;;;;;12.80;99.90;;;11.72;100.00;95636.97;10543486;28;1942;-79
2021/10/04 19:30:01;;;;;;;;;;;12.80;99.90;;;11.78;100.00;95633.13;10546430;28;1982;-79
2021/10/04 19:35:04;;;;;;;;;;;12.80;99.90;;;11.78;100.00;95633.13;10538313;28;2228;-77
2021/10/04 19:40:08;;;;;;;;;;;12.80;99.90;;;11.73;100.00;95635.88;10540607;28;2138;-76
2021/10/04 19:45:10;;;;;;;;;;;12.80;99.90;;;11.68;100.00;95608.97;10527765;28;2278;-77
2021/10/04 19:50:13;;;;;;;;;;;12.70;99.90;;;11.74;100.00;95597.06;10529045;28;2461;-79
2021/10/04 19:55:17;;;;;;;;;;;12.70;99.90;;;11.56;100.00;95574.38;10557172;28;1880;-79
2021/10/04 20:00:20;;;;;;;;;;;12.70;99.90;;;11.58;100.00;95568.72;10568300;28;1891;-79
2021/10/04 20:05:23;;;;;;;;;;;12.60;99.90;;;11.64;100.00;95563.00;10580140;28;1689;-74
2021/10/04 20:10:26;;;;;;;;;;;12.60;99.90;;;11.59;100.00;95567.63;10573591;28;1648;-78
2021/10/04 20:15:28;;;;;;;;;;;12.70;99.90;;;11.53;100.00;95564.19;10584064;28;1833;-80
2021/10/04 20:20:34;;;;;;;;;;;12.60;99.90;;;11.52;100.00;95553.72;10533841;28;1967;-81
2021/10/04 20:25:39;;;;;;;;;;;12.60;99.90;;;11.58;100.00;95550.69;10533477;28;1914;-81
2021/10/04 20:30:41;;;;;;;;;;;12.60;99.90;;;11.56;100.00;95541.25;10540966;28;1923;-77
2021/10/04 20:35:44;;;;;;;;;;;12.60;99.90;;;11.49;100.00;95546.97;10536466;28;2006;-77
2021/10/04 20:40:47;;;;;;;;;;;12.60;99.90;;;11.48;100.00;95539.19;10555816;28;1963;-78
2021/10/04 20:45:50;;;;;;;;;;;12.50;99.90;;;11.45;100.00;95537.06;10578412;28;1841;-78
2021/10/04 20:50:53;;;;;;;;;;;12.50;99.90;;;11.34;100.00;95512.97;10586370;28;1862;-78
2021/10/04 20:55:56;;;;;;;;;;;12.50;99.90;;;11.40;100.00;95496.75;10585424;28;1810;-79
2021/10/04 21:00:59;;;;;;;;;;;12.40;99.90;;;11.42;100.00;95473.06;10558652;28;1989;-79
2021/10/04 21:06:03;;;;;;;;;;;12.50;99.90;;;11.35;100.00;95473.41;10553528;28;1896;-78
2021/10/04 21:11:06;;;;;;;;;;;12.40;99.90;;;11.31;100.00;95456.19;10564706;28;1815;-79
2021/10/04 21:16:08;;;;;;;;;;;12.40;99.90;;;11.21;100.00;95451.75;10581892;28;1857;-78
2021/10/04 21:21:11;;;;;;;;;;;12.30;99.90;;;11.16;100.00;95440.22;10583859;28;1898;-80
2021/10/04 21:26:14;;;;;;;;;;;12.20;99.90;;;11.20;100.00;95452.84;10573197;28;1975;-79
2021/10/04 21:31:17;;;;;;;;;;;12.20;99.90;;;11.32;100.00;95450.56;10561950;28;1826;-79
2021/10/04 21:36:24;;;;;;;;;;;12.30;99.90;;;11.26;100.00;95435.56;10556581;28;1864;-79
2021/10/04 21:41:29;;;;;;;;;;;12.30;99.90;;;11.37;100.00;95428.16;10548278;28;2045;-78
2021/10/04 21:46:32;;;;;;;;;;;12.30;99.90;;;11.33;100.00;95448.66;10544318;28;1880;-79
2021/10/04 21:51:35;;;;;;;;;;;12.30;99.90;;;11.34;100.00;95456.44;10544702;28;1913;-79
2021/10/04 21:56:38;;;;;;;;;;;12.30;99.90;;;11.37;100.00;95449.69;10562726;28;1773;-79
2021/10/04 22:01:47;;;;;;;;;;;12.40;99.90;;;11.30;100.00;95438.47;10557208;28;1982;-80
2021/10/04 22:07:11;;;;;;;;;;;12.30;99.90;;;11.31;100.00;95446.25;10546397;28;1869;-79
2021/10/04 22:12:13;;;;;;;;;;;12.30;99.90;;;11.31;100.00;95443.53;10554247;28;1892;-79
2021/10/04 22:17:16;;;;;;;;;;;12.40;99.90;;;11.29;100.00;95434.97;10544861;28;1931;-78
2021/10/04 22:22:19;;;;;;;;;;;12.30;99.90;;;11.24;100.00;95420.78;10543827;28;2215;-79
2021/10/04 22:27:24;;;;;;;;;;;12.20;99.90;;;11.15;100.00;95404.47;10547855;28;1966;-78
2021/10/04 22:32:27;;;;;;;;;;;12.30;99.90;;;11.08;100.00;95398.63;10543905;28;2302;-80
2021/10/04 22:37:30;;;;;;;;;;;12.20;99.90;;;11.18;100.00;95382.34;10546294;28;2053;-78
2021/10/04 22:42:33;;;;;;;;;;;12.10;99.90;;;11.24;100.00;95391.97;10549303;28;2133;-79
2021/10/04 22:47:36;;;;;;;;;;;12.20;99.90;;;11.15;100.00;95377.56;10549075;28;1838;-78
2021/10/04 22:52:39;;;;;;;;;;;12.20;99.90;;;11.17;100.00;95378.06;10551270;28;1816;-78
2021/10/04 22:57:42;;;;;;;;;;;12.20;99.90;;;11.25;100.00;95369.34;10546797;28;2256;-79
2021/10/04 23:02:45;;;;;;;;;;;12.20;99.90;;;11.22;100.00;95356.50;10549524;28;1967;-78
2021/10/04 23:07:48;;;;;;;;;;;12.20;99.90;;;11.03;100.00;95348.38;10547711;28;1908;-78
2021/10/04 23:12:51;;;;;;;;;;;12.20;99.90;;;11.08;100.00;95326.00;10553172;28;1858;-78
2021/10/04 23:17:54;;;;;;;;;;;12.10;99.90;;;11.02;100.00;95332.53;10572623;28;1860;-77